Time;durP1;ratioP1;P1;durP2;ratioP2;P2;SDS_P1;SDS_P2;PMS_P1;PMS_P2;Temp;Humidity;BMP_temperature;BMP_pressure;BME280_temperature;BME280_humidity;BME280_pressure;Samples;Min_cycle;Max_cycle;Signal;HPM_P1;HPM_P2
2021/05/28 00:01:37;;;;;;;6.03;5.43;;;12.70;99.90;;;;;;5096573;28;20206;-67
2021/05/28 00:04:05;;;;;;;5.57;5.03;;;12.60;99.90;;;;;;5096591;28;20225;-68
2021/05/28 00:06:31;;;;;;;6.38;5.75;;;12.60;99.90;;;;;;5096143;28;20202;-68
2021/05/28 00:08:57;;;;;;;6.93;5.72;;;12.70;99.90;;;;;;5096436;28;20309;-68
2021/05/28 00:11:24;;;;;;;6.53;5.75;;;12.80;99.90;;;;;;5096394;28;20202;-68
2021/05/28 00:13:50;;;;;;;8.80;6.68;;;12.80;99.90;;;;;;5096380;28;20623;-68
2021/05/28 00:16:16;;;;;;;9.98;6.13;;;12.70;99.90;;;;;;5095965;28;20305;-68
2021/05/28 00:18:43;;;;;;;8.98;6.97;;;12.70;99.90;;;;;;5096053;28;20703;-68
2021/05/28 00:21:10;;;;;;;9.38;7.15;;;12.60;99.90;;;;;;5096241;28;20301;-70
2021/05/28 00:23:36;;;;;;;10.43;6.93;;;12.60;99.90;;;;;;5096162;28;20206;-69
2021/05/28 00:26:03;;;;;;;9.55;6.50;;;12.50;99.90;;;;;;5095692;28;20289;-70
2021/05/28 00:28:29;;;;;;;8.20;6.50;;;12.60;99.90;;;;;;5095566;28;20222;-70
2021/05/28 00:30:55;;;;;;;8.40;6.63;;;12.70;99.90;;;;;;5095755;28;20220;-69
2021/05/28 00:33:22;;;;;;;8.32;6.57;;;12.70;99.90;;;;;;5096007;28;20289;-70
2021/05/28 00:35:48;;;;;;;9.30;7.07;;;12.80;99.90;;;;;;5095742;28;20296;-69
2021/05/28 00:38:15;;;;;;;10.48;7.60;;;12.80;99.90;;;;;;5095682;28;20229;-70
2021/05/28 00:40:42;;;;;;;7.93;6.32;;;12.60;99.90;;;;;;5095609;28;20739;-69
2021/05/28 00:43:08;;;;;;;9.48;7.15;;;12.50;99.90;;;;;;5095613;28;20210;-70
2021/05/28 00:45:34;;;;;;;9.52;6.65;;;12.40;99.90;;;;;;5095540;28;20232;-70
2021/05/28 00:48:00;;;;;;;8.68;6.38;;;12.40;99.90;;;;;;5095620;28;20204;-70
2021/05/28 00:50:29;;;;;;;8.07;6.05;;;12.50;99.90;;;;;;5095605;28;20664;-70
2021/05/28 00:52:58;;;;;;;11.50;7.18;;;12.50;99.90;;;;;;5095586;28;20293;-70
2021/05/28 00:55:27;;;;;;;7.97;6.38;;;12.50;99.90;;;;;;5095349;28;20251;-70
2021/05/28 00:57:55;;;;;;;8.27;6.10;;;12.50;99.90;;;;;;5095586;28;20225;-69
2021/05/28 01:00:24;;;;;;;7.28;5.63;;;12.70;99.90;;;;;;5095395;28;20675;-69
2021/05/28 01:02:50;;;;;;;8.85;6.25;;;12.70;99.90;;;;;;5095304;28;20206;-70
2021/05/28 01:05:17;;;;;;;9.48;6.10;;;12.60;99.90;;;;;;5095099;28;20213;-70
2021/05/28 01:07:43;;;;;;;7.70;5.35;;;12.50;99.90;;;;;;5095168;28;20289;-69
2021/05/28 01:10:11;;;;;;;8.98;5.43;;;12.50;99.90;;;;;;5095218;28;20250;-69
2021/05/28 01:12:38;;;;;;;7.53;5.53;;;12.60;99.90;;;;;;5095066;28;20220;-70
2021/05/28 01:15:06;;;;;;;6.63;5.85;;;12.60;99.90;;;;;;5094879;28;20202;-69
2021/05/28 01:17:33;;;;;;;7.10;5.47;;;12.60;99.90;;;;;;5094628;28;20221;-70
2021/05/28 01:19:59;;;;;;;6.40;5.05;;;12.60;99.90;;;;;;5095020;28;20226;-70
2021/05/28 01:22:26;;;;;;;8.27;5.60;;;12.60;99.90;;;;;;5094972;28;20553;-70
2021/05/28 01:24:53;;;;;;;7.75;5.57;;;12.60;99.90;;;;;;5094787;28;20202;-70
2021/05/28 01:27:19;;;;;;;5.75;5.25;;;12.60;99.90;;;;;;5094813;28;20306;-69
2021/05/28 01:29:48;;;;;;;6.15;5.43;;;12.50;99.90;;;;;;5094762;28;20703;-69
2021/05/28 01:32:15;;;;;;;5.68;4.38;;;12.50;99.90;;;;;;5094855;28;20237;-70
2021/05/28 01:34:42;;;;;;;5.90;4.25;;;12.50;99.90;;;;;;5094786;28;20204;-70
2021/05/28 01:37:08;;;;;;;4.03;3.63;;;12.60;99.90;;;;;;5094482;28;20225;-70
2021/05/28 01:39:43;;;;;;;5.28;4.40;;;12.60;99.90;;;;;;5093900;28;20679;-69
2021/05/28 01:42:09;;;;;;;5.97;4.30;;;12.80;99.90;;;;;;5094663;28;20622;-70
2021/05/28 01:44:36;;;;;;;4.65;3.40;;;12.80;99.90;;;;;;5094618;28;20202;-70
2021/05/28 01:47:02;;;;;;;4.45;3.47;;;12.80;99.90;;;;;;5094450;28;20285;-70
2021/05/28 01:49:29;;;;;;;5.85;3.72;;;12.70;99.90;;;;;;5094184;28;20308;-70
2021/05/28 01:51:55;;;;;;;4.70;3.30;;;12.60;99.90;;;;;;5094777;28;20202;-70
2021/05/28 01:54:22;;;;;;;4.18;3.55;;;12.70;99.90;;;;;;5094435;28;20541;-69
2021/05/28 01:56:50;;;;;;;3.70;3.35;;;12.70;99.90;;;;;;5093966;28;20222;-69
2021/05/28 01:59:23;;;;;;;3.70;3.40;;;12.70;99.90;;;;;;5094004;28;20224;-70
2021/05/28 02:01:50;;;;;;;3.65;3.35;;;12.60;99.90;;;;;;5094370;28;20225;-70
2021/05/28 02:04:17;;;;;;;6.07;3.67;;;12.70;99.90;;;;;;5094305;28;20715;-69
2021/05/28 02:06:43;;;;;;;5.82;3.50;;;12.80;99.90;;;;;;5093933;28;20391;-69
2021/05/28 02:09:10;;;;;;;3.83;3.40;;;12.90;99.90;;;;;;5093963;28;20229;-70
2021/05/28 02:11:36;;;;;;;4.10;3.30;;;13.00;99.90;;;;;;5094178;28;20206;-69
2021/05/28 02:14:04;;;;;;;3.38;3.03;;;13.10;99.90;;;;;;5094167;28;20293;-70
2021/05/28 02:16:30;;;;;;;4.55;3.30;;;13.20;99.90;;;;;;5093862;28;20615;-69
2021/05/28 02:18:57;;;;;;;3.50;2.95;;;13.20;99.90;;;;;;5093829;28;20222;-70
2021/05/28 02:21:23;;;;;;;3.20;2.83;;;13.30;99.90;;;;;;5093738;28;20248;-70
2021/05/28 02:23:50;;;;;;;4.05;3.30;;;13.20;99.90;;;;;;5093845;28;20668;-70
2021/05/28 02:26:16;;;;;;;3.80;3.33;;;13.20;99.90;;;;;;5093770;28;20310;-69
2021/05/28 02:28:43;;;;;;;3.85;3.03;;;13.20;99.90;;;;;;5093894;28;20221;-69
2021/05/28 02:31:10;;;;;;;5.32;3.72;;;13.00;99.90;;;;;;5093654;28;20209;-69
2021/05/28 02:33:36;;;;;;;3.42;3.13;;;13.10;99.90;;;;;;5093719;28;20298;-70
2021/05/28 02:36:03;;;;;;;6.13;3.45;;;13.10;99.90;;;;;;5093521;28;20210;-69
2021/05/28 02:38:29;;;;;;;4.20;3.35;;;13.10;99.90;;;;;;5093456;28;20226;-70
2021/05/28 02:40:56;;;;;;;5.22;3.80;;;13.10;99.90;;;;;;5093737;28;20294;-70
2021/05/28 02:43:22;;;;;;;6.60;4.10;;;13.00;99.90;;;;;;5093657;28;20672;-69
2021/05/28 02:45:49;;;;;;;4.25;3.67;;;13.00;99.90;;;;;;5093282;28;20202;-69
2021/05/28 02:48:16;;;;;;;5.85;3.17;;;13.00;99.90;;;;;;5093519;28;20245;-69
2021/05/28 02:50:42;;;;;;;4.28;3.50;;;12.90;99.90;;;;;;5098159;28;20292;-69
2021/05/28 02:53:10;;;;;;;4.55;3.70;;;12.90;99.90;;;;;;5100296;28;20292;-69
2021/05/28 02:55:36;;;;;;;5.38;4.05;;;13.00;99.90;;;;;;5099921;28;20671;-70
2021/05/28 02:58:03;;;;;;;5.00;3.28;;;13.10;99.90;;;;;;5100204;28;20221;-69
2021/05/28 03:00:29;;;;;;;5.63;3.78;;;13.20;99.90;;;;;;5100362;28;20201;-70
2021/05/28 03:02:56;;;;;;;4.03;3.42;;;13.20;99.90;;;;;;5100309;28;20304;-69
2021/05/28 03:05:23;;;;;;;3.78;3.40;;;13.20;99.90;;;;;;5100118;28;20201;-70
2021/05/28 03:07:49;;;;;;;5.88;3.92;;;13.10;99.90;;;;;;5100066;28;20237;-70
2021/05/28 03:10:16;;;;;;;4.97;3.42;;;13.20;99.90;;;;;;5100327;28;20347;-70
2021/05/28 03:12:42;;;;;;;4.93;4.05;;;13.20;99.90;;;;;;5100506;28;20229;-69
2021/05/28 03:15:10;;;;;;;3.67;3.38;;;13.20;99.90;;;;;;5100032;28;20206;-69
2021/05/28 03:17:40;;;;;;;3.42;3.13;;;13.20;99.90;;;;;;5099932;28;20217;-69
2021/05/28 03:20:16;;;;;;;3.58;3.28;;;13.20;99.90;;;;;;5100147;28;20275;-70
2021/05/28 03:22:43;;;;;;;4.70;2.90;;;13.20;99.90;;;;;;5100148;28;20201;-70
2021/05/28 03:25:12;;;;;;;3.90;3.50;;;13.20;99.90;;;;;;5100095;28;20202;-69
2021/05/28 03:27:40;;;;;;;2.90;2.63;;;13.20;99.90;;;;;;5099741;28;20284;-69
2021/05/28 03:30:09;;;;;;;7.78;3.40;;;13.20;99.90;;;;;;5099714;28;20233;-69
2021/05/28 03:32:35;;;;;;;4.40;3.60;;;13.20;99.90;;;;;;5099838;28;20210;-69
2021/05/28 03:35:02;;;;;;;4.10;3.55;;;13.10;99.90;;;;;;5099964;28;20198;-69
2021/05/28 03:37:28;;;;;;;4.18;3.40;;;13.10;99.90;;;;;;5099763;28;20266;-70
2021/05/28 03:39:55;;;;;;;3.53;3.22;;;13.20;99.90;;;;;;5099945;28;20221;-69
2021/05/28 03:42:22;;;;;;;3.83;2.78;;;13.10;99.90;;;;;;5099761;28;20245;-69
2021/05/28 03:44:48;;;;;;;3.47;2.75;;;13.10;99.90;;;;;;5099714;28;20202;-69
2021/05/28 03:47:15;;;;;;;4.32;3.58;;;13.10;99.90;;;;;;5099685;28;20194;-69
2021/05/28 03:49:42;;;;;;;4.68;3.10;;;13.10;99.90;;;;;;5099787;28;20229;-69
2021/05/28 03:52:08;;;;;;;3.78;2.97;;;13.00;99.90;;;;;;5099926;28;20537;-69
2021/05/28 03:54:35;;;;;;;3.60;3.10;;;13.00;99.90;;;;;;5099709;28;20202;-69
2021/05/28 03:57:03;;;;;;;3.20;2.90;;;12.80;99.90;;;;;;5099636;28;20328;-69
2021/05/28 03:59:29;;;;;;;3.83;3.08;;;12.80;99.90;;;;;;5099621;28;20221;-69
2021/05/28 04:01:56;;;;;;;4.40;3.30;;;12.80;99.90;;;;;;5097221;28;20297;-70
2021/05/28 04:04:23;;;;;;;3.33;2.83;;;12.80;99.90;;;;;;5096328;28;20202;-69
2021/05/28 04:06:49;;;;;;;3.65;3.30;;;12.80;99.90;;;;;;5096407;28;20202;-69
2021/05/28 04:09:16;;;;;;;3.42;3.10;;;12.90;99.90;;;;;;5096527;28;20674;-69
2021/05/28 04:11:42;;;;;;;4.57;4.10;;;13.00;99.90;;;;;;5096694;28;20202;-69
2021/05/28 04:14:09;;;;;;;4.78;3.80;;;13.00;99.90;;;;;;5096380;28;20198;-69
2021/05/28 04:16:35;;;;;;;6.30;4.43;;;13.00;99.90;;;;;;5096013;28;20210;-70
2021/05/28 04:19:02;;;;;;;4.80;4.05;;;12.80;99.90;;;;;;5096170;28;20226;-69
2021/05/28 04:21:28;;;;;;;4.00;3.55;;;12.90;99.90;;;;;;5096223;28;20198;-69
2021/05/28 04:23:55;;;;;;;5.90;5.10;;;12.70;99.90;;;;;;5096204;28;20210;-69
2021/05/28 04:26:21;;;;;;;7.78;5.10;;;12.70;99.90;;;;;;5095910;28;20206;-69
2021/05/28 04:28:47;;;;;;;9.25;4.65;;;12.50;99.90;;;;;;5096201;28;20248;-69
2021/05/28 04:31:15;;;;;;;6.40;4.15;;;12.40;99.90;;;;;;5095808;28;20295;-69
2021/05/28 04:33:41;;;;;;;5.00;3.90;;;12.50;99.90;;;;;;5096049;28;20298;-69
2021/05/28 04:36:07;;;;;;;8.43;5.00;;;12.60;99.90;;;;;;5095565;28;20746;-69
2021/05/28 04:38:36;;;;;;;7.65;4.22;;;12.70;99.90;;;;;;5095750;28;20282;-69
2021/05/28 04:41:02;;;;;;;6.47;5.30;;;12.70;99.90;;;;;;5095640;28;20206;-69
2021/05/28 04:43:29;;;;;;;6.65;4.80;;;12.80;99.90;;;;;;5095717;28;20213;-69
2021/05/28 04:45:55;;;;;;;7.95;4.82;;;12.80;99.90;;;;;;5095554;28;20622;-69
2021/05/28 04:48:22;;;;;;;7.53;5.30;;;12.80;99.90;;;;;;5095576;28;20215;-69
2021/05/28 04:50:49;;;;;;;5.03;4.50;;;12.80;99.90;;;;;;5096005;28;20202;-70
2021/05/28 04:53:15;;;;;;;7.82;5.00;;;13.00;99.90;;;;;;5095668;28;20214;-69
2021/05/28 04:55:41;;;;;;;7.38;5.45;;;13.00;99.90;;;;;;5095374;28;20201;-69
2021/05/28 04:58:08;;;;;;;6.57;4.63;;;13.00;99.90;;;;;;5095329;28;20234;-69
2021/05/28 05:00:34;;;;;;;6.38;4.88;;;13.10;99.90;;;;;;5095505;28;20206;-70
2021/05/28 05:03:00;;;;;;;9.05;6.50;;;13.10;99.90;;;;;;5095671;28;20229;-70
2021/05/28 05:05:27;;;;;;;11.32;5.45;;;12.90;99.90;;;;;;5095260;28;20209;-69
2021/05/28 05:07:54;;;;;;;10.55;5.70;;;12.90;99.90;;;;;;5095292;28;20322;-70
2021/05/28 05:10:20;;;;;;;8.60;5.85;;;12.90;99.90;;;;;;5095295;28;20245;-69
2021/05/28 05:12:46;;;;;;;5.90;4.70;;;13.00;99.90;;;;;;5094523;28;20214;-69
2021/05/28 05:15:13;;;;;;;7.35;5.28;;;13.10;99.90;;;;;;5094761;28;20204;-69
2021/05/28 05:17:40;;;;;;;6.00;5.15;;;13.00;99.90;;;;;;5094875;28;20244;-69
2021/05/28 05:20:08;;;;;;;6.93;4.97;;;13.10;99.90;;;;;;5095134;28;20592;-69
2021/05/28 05:22:35;;;;;;;6.95;5.55;;;13.20;99.90;;;;;;5094966;28;20702;-69
2021/05/28 05:25:02;;;;;;;8.70;5.13;;;13.20;99.90;;;;;;5095274;28;20250;-69
2021/05/28 05:27:28;;;;;;;7.47;5.57;;;13.30;99.90;;;;;;5094520;28;20206;-69
2021/05/28 05:29:55;;;;;;;6.78;5.00;;;13.40;99.90;;;;;;5094895;28;20230;-69
2021/05/28 05:32:21;;;;;;;7.88;5.75;;;13.50;99.90;;;;;;5094605;28;20229;-69
2021/05/28 05:34:47;;;;;;;8.52;5.20;;;13.50;99.90;;;;;;5094838;28;20204;-69
2021/05/28 05:37:14;;;;;;;8.35;5.80;;;13.40;99.90;;;;;;5094788;28;20226;-69
2021/05/28 05:39:41;;;;;;;18.65;10.90;;;13.50;99.90;;;;;;5094693;28;20313;-69
2021/05/28 05:42:08;;;;;;;9.52;5.60;;;13.50;99.90;;;;;;5094668;28;20214;-69
2021/05/28 05:44:35;;;;;;;7.50;5.25;;;13.50;99.90;;;;;;5094468;28;20202;-69
2021/05/28 05:47:01;;;;;;;7.43;5.70;;;13.60;99.90;;;;;;5094516;28;20609;-70
2021/05/28 05:49:27;;;;;;;7.25;5.93;;;13.70;99.90;;;;;;5094573;28;20222;-69
2021/05/28 05:51:54;;;;;;;9.70;5.90;;;13.70;99.90;;;;;;5094792;28;20297;-69
2021/05/28 05:54:21;;;;;;;9.15;6.15;;;13.70;99.90;;;;;;5094407;28;20213;-70
2021/05/28 05:56:48;;;;;;;6.63;5.32;;;13.50;99.90;;;;;;5094283;28;20255;-69
2021/05/28 05:59:14;;;;;;;7.55;5.40;;;13.40;99.90;;;;;;5094395;28;20297;-69
2021/05/28 06:01:41;;;;;;;8.55;5.35;;;13.40;99.90;;;;;;5094366;28;20198;-69
2021/05/28 06:04:07;;;;;;;10.18;5.55;;;13.50;99.90;;;;;;5094329;28;20293;-69
2021/05/28 06:06:33;;;;;;;8.57;6.30;;;13.70;99.90;;;;;;5093972;28;20243;-69
2021/05/28 06:09:00;;;;;;;7.80;5.75;;;13.80;99.90;;;;;;5094038;28;20309;-70
2021/05/28 06:11:26;;;;;;;7.65;6.10;;;13.80;99.90;;;;;;5094225;28;20208;-69
2021/05/28 06:13:53;;;;;;;8.65;5.28;;;13.80;99.90;;;;;;5094178;28;20283;-70
2021/05/28 06:16:19;;;;;;;8.43;6.45;;;13.60;99.90;;;;;;5094083;28;20206;-70
2021/05/28 06:18:46;;;;;;;11.43;7.13;;;13.60;99.90;;;;;;5093647;28;20703;-69
2021/05/28 06:21:12;;;;;;;10.45;6.15;;;13.60;99.90;;;;;;5093781;28;20208;-70
2021/05/28 06:23:38;;;;;;;9.02;5.57;;;13.60;99.90;;;;;;5093982;28;20293;-70
2021/05/28 06:26:05;;;;;;;9.05;6.35;;;13.50;99.90;;;;;;5093144;28;20684;-69
2021/05/28 06:28:31;;;;;;;9.23;6.03;;;13.40;99.90;;;;;;5093677;28;20213;-69
2021/05/28 06:30:58;;;;;;;11.15;6.97;;;13.50;99.90;;;;;;5093976;28;20289;-69
2021/05/28 06:33:24;;;;;;;9.65;5.88;;;13.50;99.90;;;;;;5093854;28;20208;-69
2021/05/28 06:35:51;;;;;;;8.40;5.97;;;13.50;99.90;;;;;;5093621;28;20572;-69
2021/05/28 06:38:17;;;;;;;9.25;6.55;;;13.60;99.90;;;;;;5093368;28;20226;-69
2021/05/28 06:40:43;;;;;;;9.75;6.47;;;13.80;99.90;;;;;;5093737;28;20637;-69
2021/05/28 06:43:10;;;;;;;9.73;6.63;;;14.10;99.90;;;;;;5093443;28;20300;-69
2021/05/28 06:45:36;;;;;;;12.70;6.65;;;14.20;99.90;;;;;;5093612;28;20301;-69
2021/05/28 06:48:05;;;;;;;10.48;6.35;;;14.40;99.90;;;;;;5093597;28;20613;-69
2021/05/28 06:50:31;;;;;;;9.15;6.30;;;14.50;99.90;;;;;;5093729;28;20649;-69
2021/05/28 06:52:58;;;;;;;8.60;6.50;;;14.50;99.90;;;;;;5093415;28;20221;-69
2021/05/28 06:55:25;;;;;;;9.40;6.25;;;14.30;99.90;;;;;;5093244;28;20201;-70
2021/05/28 06:57:52;;;;;;;11.88;6.93;;;14.00;99.90;;;;;;5093338;28;20218;-70
2021/05/28 07:00:19;;;;;;;10.23;7.50;;;14.00;99.90;;;;;;5093622;28;20624;-70
2021/05/28 07:02:45;;;;;;;9.57;6.30;;;13.90;99.90;;;;;;5093584;28;20210;-69
2021/05/28 07:05:13;;;;;;;8.10;6.05;;;14.00;99.90;;;;;;5093735;28;20308;-70
2021/05/28 07:07:40;;;;;;;12.82;7.07;;;13.80;99.90;;;;;;5093352;28;20583;-69
2021/05/28 07:10:07;;;;;;;9.35;6.75;;;13.80;99.90;;;;;;5093162;28;20241;-70
2021/05/28 07:12:35;;;;;;;10.85;6.95;;;13.80;99.90;;;;;;5093436;28;20290;-69
2021/05/28 07:15:02;;;;;;;11.15;6.90;;;13.60;99.90;;;;;;5093454;28;20572;-69
2021/05/28 07:17:28;;;;;;;12.45;7.10;;;13.70;99.90;;;;;;5093174;28;20218;-69
2021/05/28 07:19:54;;;;;;;11.02;7.85;;;13.70;99.90;;;;;;5093111;28;20226;-68
2021/05/28 07:22:21;;;;;;;8.63;6.50;;;13.90;99.90;;;;;;5093425;28;20198;-70
2021/05/28 07:24:48;;;;;;;14.23;9.82;;;14.10;99.90;;;;;;5093166;28;20296;-70
2021/05/28 07:27:14;;;;;;;11.82;6.65;;;14.30;99.90;;;;;;5093282;28;20230;-70
2021/05/28 07:29:41;;;;;;;11.35;6.78;;;14.50;99.90;;;;;;5093287;28;20227;-70
2021/05/28 07:32:07;;;;;;;12.15;6.90;;;14.80;99.90;;;;;;5093324;28;20203;-70
2021/05/28 07:34:34;;;;;;;7.82;6.03;;;15.00;99.90;;;;;;5093207;28;20703;-70
2021/05/28 07:37:00;;;;;;;7.63;5.97;;;15.20;99.90;;;;;;5094384;28;20204;-69
2021/05/28 07:39:28;;;;;;;10.02;6.75;;;15.10;99.90;;;;;;5097017;28;20305;-69
2021/05/28 07:41:54;;;;;;;9.02;6.20;;;15.10;99.90;;;;;;5096865;28;20228;-69
2021/05/28 07:44:21;;;;;;;7.93;5.65;;;15.30;99.90;;;;;;5096966;28;20201;-69
2021/05/28 07:46:47;;;;;;;8.80;6.55;;;15.40;99.90;;;;;;5096621;28;20230;-69
2021/05/28 07:49:15;;;;;;;6.90;6.03;;;15.40;99.90;;;;;;5096557;28;20692;-69
2021/05/28 07:51:42;;;;;;;9.52;6.25;;;15.20;99.90;;;;;;5096860;28;20208;-69
2021/05/28 07:54:09;;;;;;;14.40;6.40;;;15.20;99.90;;;;;;5096855;28;20295;-69
2021/05/28 07:56:37;;;;;;;7.88;6.25;;;15.50;99.90;;;;;;5096474;28;20297;-69
2021/05/28 07:59:04;;;;;;;8.57;6.07;;;15.60;99.90;;;;;;5096416;28;20229;-69
2021/05/28 08:01:31;;;;;;;7.00;5.95;;;15.50;99.90;;;;;;5096456;28;20242;-70
2021/05/28 08:03:58;;;;;;;7.75;6.13;;;15.50;99.90;;;;;;5096619;28;20232;-69
2021/05/28 08:06:24;;;;;;;7.00;5.65;;;15.60;99.90;;;;;;5096676;28;20295;-69
2021/05/28 08:08:51;;;;;;;7.75;6.10;;;15.80;99.90;;;;;;5096378;28;20309;-70
2021/05/28 08:11:18;;;;;;;8.00;5.63;;;15.80;99.90;;;;;;5096248;28;20671;-69
2021/05/28 08:13:45;;;;;;;7.47;5.70;;;15.80;99.90;;;;;;5096465;28;20304;-69
2021/05/28 08:16:12;;;;;;;9.82;6.50;;;15.80;99.90;;;;;;5096110;28;20208;-69
2021/05/28 08:18:38;;;;;;;11.15;6.38;;;15.40;99.90;;;;;;5096260;28;20314;-69
2021/05/28 08:21:06;;;;;;;6.38;5.43;;;15.30;99.90;;;;;;5096558;28;20204;-69
2021/05/28 08:23:33;;;;;;;6.25;5.60;;;15.30;99.90;;;;;;5096152;28;20295;-70
2021/05/28 08:26:02;;;;;;;6.30;5.00;;;15.50;99.90;;;;;;5095987;28;20203;-70
2021/05/28 08:28:30;;;;;;;7.82;5.68;;;15.40;99.90;;;;;;5095983;28;20620;-69
2021/05/28 08:30:57;;;;;;;6.80;5.20;;;15.50;99.90;;;;;;5096099;28;20203;-70
2021/05/28 08:33:23;;;;;;;7.47;4.93;;;15.50;99.90;;;;;;5096080;28;20291;-69
2021/05/28 08:35:50;;;;;;;6.82;4.95;;;15.50;99.90;;;;;;5095672;28;20712;-70
2021/05/28 08:38:16;;;;;;;6.03;5.20;;;15.50;99.90;;;;;;5095898;28;20318;-69
2021/05/28 08:40:42;;;;;;;6.32;5.10;;;15.50;99.90;;;;;;5096027;28;20627;-69
2021/05/28 08:43:09;;;;;;;10.20;5.65;;;15.40;99.90;;;;;;5095644;28;20208;-70
2021/05/28 08:45:37;;;;;;;7.82;5.95;;;15.30;99.90;;;;;;5095661;28;20539;-70
2021/05/28 08:48:06;;;;;;;7.07;5.63;;;15.40;99.90;;;;;;5095198;28;20755;-69
2021/05/28 08:50:33;;;;;;;7.05;5.60;;;15.50;99.90;;;;;;5095828;28;20648;-69
2021/05/28 08:53:01;;;;;;;6.75;4.90;;;15.60;99.90;;;;;;5095643;28;20201;-69
2021/05/28 08:55:27;;;;;;;6.45;4.97;;;15.60;99.90;;;;;;5095428;28;20199;-70
2021/05/28 08:57:53;;;;;;;6.00;4.55;;;15.70;99.90;;;;;;5095127;28;20249;-70
2021/05/28 09:00:20;;;;;;;6.10;4.70;;;15.70;99.90;;;;;;5095829;28;20294;-70
2021/05/28 09:02:46;;;;;;;4.82;4.32;;;15.70;99.90;;;;;;5095452;28;20207;-69
2021/05/28 09:05:16;;;;;;;4.38;3.97;;;15.80;99.90;;;;;;5095321;28;20208;-69
2021/05/28 09:07:53;;;;;;;7.68;4.50;;;15.60;98.20;;;;;;5095269;28;20251;-69
2021/05/28 09:10:31;;;;;;;4.97;4.47;;;15.60;99.30;;;;;;5095342;28;20654;-70
2021/05/28 09:13:24;;;;;;;5.35;4.40;;;15.60;98.60;;;;;;5095131;28;20204;-69
2021/05/28 09:16:04;;;;;;;6.78;4.70;;;15.60;99.50;;;;;;5080815;28;20218;-69
2021/05/28 09:18:41;;;;;;;5.15;4.35;;;15.70;99.90;;;;;;5095037;28;20227;-70
2021/05/28 09:21:09;;;;;;;7.03;4.45;;;16.30;99.90;;;;;;5094917;28;20708;-69
2021/05/28 09:23:35;;;;;;;6.47;4.72;;;16.70;99.10;;;;;;5095109;28;20575;-69
2021/05/28 09:26:05;;;;;;;6.35;5.40;;;16.90;98.00;;;;;;5095109;28;20296;-70
2021/05/28 09:28:38;;;;;;;5.05;4.55;;;16.90;97.20;;;;;;5094925;28;20237;-70
2021/05/28 09:31:07;;;;;;;6.47;5.03;;;16.80;96.90;;;;;;5094731;28;20647;-69
2021/05/28 09:33:35;;;;;;;5.57;4.85;;;16.60;97.10;;;;;;5094968;28;20599;-69
2021/05/28 09:36:11;;;;;;;6.20;4.60;;;16.30;97.90;;;;;;5094632;28;20353;-69
2021/05/28 09:38:38;;;;;;;5.90;4.82;;;15.70;98.00;;;;;;5094677;28;20231;-70
2021/05/28 09:41:05;;;;;;;6.22;4.70;;;15.40;99.20;;;;;;5094757;28;20205;-69
2021/05/28 09:43:32;;;;;;;5.10;4.60;;;15.40;99.50;;;;;;5094248;28;20305;-69
2021/05/28 09:45:59;;;;;;;5.53;4.05;;;15.40;99.30;;;;;;5094482;28;20562;-69
2021/05/28 09:48:29;;;;;;;5.47;4.60;;;15.30;99.70;;;;;;5095040;28;20222;-70
2021/05/28 09:50:57;;;;;;;8.95;5.20;;;15.30;99.90;;;;;;5094591;28;20606;-70
2021/05/28 09:53:32;;;;;;;5.70;4.78;;;15.20;99.90;;;;;;5094582;28;20670;-69
2021/05/28 09:56:00;;;;;;;8.43;5.45;;;15.20;99.40;;;;;;5094256;28;20205;-69
2021/05/28 09:58:46;;;;;;;4.82;4.20;;;15.20;99.90;;;;;;5094336;28;20593;-69
2021/05/28 10:01:12;;;;;;;6.07;5.00;;;15.20;99.90;;;;;;5093634;28;20729;-69
2021/05/28 10:03:39;;;;;;;6.15;4.85;;;15.30;99.90;;;;;;5094379;28;20620;-69
2021/05/28 10:06:06;;;;;;;6.97;4.80;;;15.40;99.90;;;;;;5094312;28;20215;-70
2021/05/28 10:08:33;;;;;;;8.77;5.85;;;15.50;99.90;;;;;;5094157;28;20227;-69
2021/05/28 10:11:01;;;;;;;6.85;4.70;;;15.50;99.90;;;;;;5093955;28;20674;-69
2021/05/28 10:13:28;;;;;;;7.55;6.43;;;15.50;99.70;;;;;;5094400;28;20289;-69
2021/05/28 10:15:56;;;;;;;4.80;3.97;;;15.40;99.90;;;;;;5093836;28;20210;-69
2021/05/28 10:18:23;;;;;;;5.80;3.85;;;15.40;98.80;;;;;;5093848;28;20726;-69
2021/05/28 10:20:51;;;;;;;4.43;3.72;;;15.40;98.70;;;;;;5094080;28;20254;-69
2021/05/28 10:23:18;;;;;;;6.05;3.90;;;15.40;99.20;;;;;;5093904;28;20209;-70
2021/05/28 10:25:47;;;;;;;5.80;3.88;;;15.50;98.60;;;;;;5093918;28;20247;-69
2021/05/28 10:28:17;;;;;;;5.90;4.43;;;15.90;98.10;;;;;;5093891;28;20247;-69
2021/05/28 10:30:44;;;;;;;4.90;4.10;;;16.50;96.60;;;;;;5093681;28;20216;-69
2021/05/28 10:33:16;;;;;;;4.15;3.75;;;17.00;95.80;;;;;;5093891;28;20233;-69
2021/05/28 10:35:46;;;;;;;3.95;3.50;;;17.60;93.50;;;;;;5093610;28;20284;-69
2021/05/28 10:38:55;;;;;;;5.65;4.60;;;17.60;94.00;;;;;;5093656;28;20574;-69
2021/05/28 10:41:38;;;;;;;6.25;4.82;;;18.00;92.60;;;;;;5093891;28;20191;-69
2021/05/28 10:44:09;;;;;;;5.10;4.40;;;18.20;91.30;;;;;;5093984;28;20241;-69
2021/05/28 10:46:36;;;;;;;6.78;5.00;;;18.00;92.60;;;;;;5093589;28;20300;-69
2021/05/28 10:49:09;;;;;;;5.10;3.40;;;17.70;90.80;;;;;;5093760;28;20304;-69
2021/05/28 10:52:02;;;;;;;5.00;4.30;;;17.50;92.30;;;;;;5093665;28;20210;-69
2021/05/28 10:54:31;;;;;;;5.63;4.18;;;17.50;90.20;;;;;;5093568;28;20289;-70
2021/05/28 10:57:26;;;;;;;5.30;4.38;;;17.60;90.50;;;;;;5093473;28;20209;-69
2021/05/28 10:59:58;;;;;;;5.07;4.03;;;17.80;90.00;;;;;;5093657;28;20221;-69
2021/05/28 11:02:44;;;;;;;5.55;4.35;;;18.10;90.90;;;;;;5093631;28;20202;-69
2021/05/28 11:05:11;;;;;;;4.00;3.33;;;18.30;89.10;;;;;;5093594;28;20293;-69
2021/05/28 11:07:42;;;;;;;4.30;3.88;;;18.40;86.30;;;;;;5093416;28;20284;-69
2021/05/28 11:10:25;;;;;;;5.53;4.45;;;18.70;83.60;;;;;;5093509;28;20222;-69
2021/05/28 11:12:54;;;;;;;3.53;3.22;;;18.70;84.60;;;;;;5097663;28;20223;-69
2021/05/28 11:15:26;;;;;;;3.30;3.00;;;18.70;82.70;;;;;;5097351;28;20229;-69
2021/05/28 11:17:58;;;;;;;4.68;3.80;;;18.70;82.20;;;;;;5097698;28;20222;-70
2021/05/28 11:20:31;;;;;;;3.53;3.22;;;18.60;81.40;;;;;;5097655;28;20571;-69
2021/05/28 11:22:59;;;;;;;3.20;2.90;;;18.10;78.90;;;;;;5097474;28;20289;-69
2021/05/28 11:25:31;;;;;;;3.95;3.65;;;17.50;80.80;;;;;;5097179;28;20242;-70
2021/05/28 11:28:09;;;;;;;3.80;2.78;;;17.30;83.20;;;;;;5097733;28;20259;-69
2021/05/28 11:30:43;;;;;;;3.53;3.10;;;17.30;85.30;;;;;;5097360;28;20186;-69
2021/05/28 11:33:09;;;;;;;3.20;2.90;;;17.40;83.50;;;;;;5097170;28;20208;-69
2021/05/28 11:35:41;;;;;;;2.92;2.63;;;17.30;84.70;;;;;;5096918;28;20296;-69
2021/05/28 11:38:10;;;;;;;3.95;3.40;;;17.30;86.10;;;;;;5096898;28;20221;-69
2021/05/28 11:40:43;;;;;;;3.33;3.00;;;17.40;85.10;;;;;;5097113;28;20209;-69
2021/05/28 11:43:12;;;;;;;3.60;3.10;;;17.40;85.10;;;;;;5096757;28;20258;-69
2021/05/28 11:45:41;;;;;;;3.90;3.50;;;17.40;86.00;;;;;;5096728;28;20205;-69
2021/05/28 11:48:11;;;;;;;5.95;3.40;;;17.50;86.90;;;;;;5096668;28;20243;-69
2021/05/28 11:50:40;;;;;;;3.58;2.80;;;17.70;87.30;;;;;;5096858;28;20281;-69
2021/05/28 11:53:08;;;;;;;3.45;3.15;;;18.00;86.30;;;;;;5096796;28;20609;-69
2021/05/28 11:55:43;;;;;;;4.20;3.47;;;18.20;85.00;;;;;;5096594;28;20583;-69
2021/05/28 11:58:12;;;;;;;4.28;2.90;;;18.20;82.90;;;;;;5096861;28;20218;-69
2021/05/28 12:00:38;;;;;;;3.03;2.65;;;18.00;81.40;;;;;;5096739;28;20202;-69
2021/05/28 12:03:05;;;;;;;2.78;2.50;;;17.70;79.10;;;;;;5096557;28;20292;-69
2021/05/28 12:05:35;;;;;;;3.35;3.05;;;17.80;79.20;;;;;;5096072;28;20739;-69
2021/05/28 12:08:14;;;;;;;3.00;2.70;;;18.10;79.60;;;;;;5096435;28;20289;-69
2021/05/28 12:10:42;;;;;;;3.60;2.50;;;18.40;81.40;;;;;;5096549;28;20191;-69
2021/05/28 12:13:11;;;;;;;3.38;2.90;;;18.70;77.80;;;;;;5096451;28;20267;-69
2021/05/28 12:15:39;;;;;;;3.30;3.00;;;19.00;78.90;;;;;;5096147;28;20202;-70
2021/05/28 12:18:15;;;;;;;3.05;2.60;;;19.30;78.00;;;;;;5096230;28;20245;-69
2021/05/28 12:20:43;;;;;;;2.90;2.70;;;19.50;74.30;;;;;;5096366;28;20188;-69
2021/05/28 12:23:15;;;;;;;2.20;2.10;;;19.50;75.90;;;;;;5095399;28;20942;-69
2021/05/28 12:25:44;;;;;;;2.53;2.33;;;19.60;73.80;;;;;;5096052;28;20808;-69
2021/05/28 12:28:21;;;;;;;1.90;1.80;;;19.80;72.60;;;;;;5080474;28;20588;-69
2021/05/28 12:30:50;;;;;;;2.20;2.10;;;20.10;70.00;;;;;;5094930;28;20931;-70
2021/05/28 12:33:18;;;;;;;2.20;2.00;;;20.40;68.00;;;;;;5094911;28;20445;-70
2021/05/28 12:35:49;;;;;;;2.67;2.47;;;20.30;64.10;;;;;;5094381;28;20544;-69
2021/05/28 12:38:16;;;;;;;3.22;2.97;;;20.20;64.80;;;;;;5095059;28;20487;-69
2021/05/28 12:40:46;;;;;;;3.25;2.95;;;19.30;69.70;;;;;;5094674;28;20248;-69
2021/05/28 12:43:20;;;;;;;2.70;2.47;;;18.80;72.10;;;;;;5094614;28;20214;-69
2021/05/28 12:45:46;;;;;;;4.28;2.33;;;18.40;75.50;;;;;;5094659;28;20208;-70
2021/05/28 12:48:13;;;;;;;2.90;2.20;;;18.40;75.20;;;;;;5094643;28;20218;-70
2021/05/28 12:50:41;;;;;;;2.40;2.20;;;18.50;75.60;;;;;;5094638;28;20225;-70